Time;durP1;ratioP1;P1;durP2;ratioP2;P2;SDS_P1;SDS_P2;PMS_P1;PMS_P2;Temp;Humidity;BMP_temperature;BMP_pressure;BME280_temperature;BME280_humidity;BME280_pressure;Samples;Min_cycle;Max_cycle;Signal;HPM_P1;HPM_P2
2022/10/26 00:01:18;;;;;;;7.25;4.30;;;11.80;99.90;;;;;;5035771;28;20035;-64
2022/10/26 00:03:45;;;;;;;7.03;4.90;;;11.80;99.90;;;;;;5033129;28;20424;-64
2022/10/26 00:06:12;;;;;;;7.82;4.35;;;11.80;99.90;;;;;;5035647;28;20021;-64
2022/10/26 00:08:37;;;;;;;7.85;4.50;;;11.90;99.90;;;;;;5035278;28;20036;-64
2022/10/26 00:11:03;;;;;;;6.68;3.88;;;11.90;99.90;;;;;;5035470;28;20025;-64
2022/10/26 00:13:29;;;;;;;11.90;6.28;;;11.90;99.90;;;;;;5034977;28;20083;-64
2022/10/26 00:15:54;;;;;;;9.43;4.38;;;11.90;99.90;;;;;;5035411;28;20029;-63
2022/10/26 00:18:20;;;;;;;5.70;3.65;;;12.00;99.90;;;;;;5035064;28;20474;-64
2022/10/26 00:20:46;;;;;;;4.15;2.90;;;12.00;99.90;;;;;;5035279;28;20082;-64
2022/10/26 00:23:11;;;;;;;7.38;3.20;;;12.00;99.90;;;;;;5035000;28;20041;-63
2022/10/26 00:25:37;;;;;;;5.45;3.45;;;12.10;99.90;;;;;;5034940;28;20038;-64
2022/10/26 00:28:03;;;;;;;6.75;3.33;;;12.10;99.90;;;;;;5034689;28;20029;-64
2022/10/26 00:30:29;;;;;;;6.35;4.18;;;12.10;99.90;;;;;;5035078;28;20036;-64
2022/10/26 00:32:54;;;;;;;6.15;3.42;;;12.10;99.90;;;;;;5033581;28;20069;-64
2022/10/26 00:35:20;;;;;;;12.43;5.70;;;12.10;99.90;;;;;;5035177;28;20025;-63
2022/10/26 00:37:45;;;;;;;7.35;4.10;;;12.10;99.90;;;;;;5034644;28;20037;-64
2022/10/26 00:40:11;;;;;;;9.55;5.13;;;12.10;99.90;;;;;;5034556;28;20025;-63
2022/10/26 00:42:36;;;;;;;9.15;6.00;;;12.10;99.90;;;;;;5033921;28;20039;-64
2022/10/26 00:45:18;;;;;;;7.50;6.00;;;12.10;99.90;;;;;;5014446;28;20518;-63
2022/10/26 00:47:48;;;;;;;7.72;5.50;;;12.10;99.90;;;;;;5029094;28;20477;-64
2022/10/26 00:50:37;;;;;;;5.72;4.68;;;12.10;99.90;;;;;;5034777;28;20025;-64
2022/10/26 00:53:05;;;;;;;8.60;4.57;;;12.20;99.90;;;;;;5034256;28;20492;-64
2022/10/26 00:55:37;;;;;;;11.18;4.90;;;12.10;99.90;;;;;;5034837;28;20025;-64
2022/10/26 00:58:05;;;;;;;6.10;4.03;;;12.10;99.90;;;;;;5034165;28;20021;-64
2022/10/26 01:00:30;;;;;;;6.20;3.70;;;12.10;99.90;;;;;;5034490;28;20060;-63
2022/10/26 01:03:02;;;;;;;8.35;4.07;;;12.10;99.90;;;;;;5034546;28;20029;-64
2022/10/26 01:05:29;;;;;;;5.00;3.17;;;12.20;99.90;;;;;;5034091;28;20033;-64
2022/10/26 01:07:55;;;;;;;4.82;2.63;;;12.20;99.90;;;;;;5034541;28;20040;-63
2022/10/26 01:10:21;;;;;;;5.38;2.83;;;12.20;99.90;;;;;;5032852;28;20030;-63
2022/10/26 01:12:47;;;;;;;3.30;2.35;;;12.30;99.90;;;;;;5034612;28;20024;-64
2022/10/26 01:15:13;;;;;;;5.05;3.22;;;12.30;99.90;;;;;;5033720;28;20022;-63
2022/10/26 01:17:56;;;;;;;9.63;3.85;;;12.30;99.90;;;;;;5034044;28;20022;-63
2022/10/26 01:20:36;;;;;;;6.28;3.17;;;12.40;99.90;;;;;;5034010;28;20022;-64
2022/10/26 01:23:02;;;;;;;5.70;2.83;;;12.30;99.90;;;;;;5033515;28;20486;-64
2022/10/26 01:25:37;;;;;;;5.32;3.00;;;12.30;99.90;;;;;;5033967;28;20061;-63
2022/10/26 01:28:17;;;;;;;7.35;3.35;;;12.30;99.90;;;;;;5033906;28;20040;-64
2022/10/26 01:30:47;;;;;;;4.13;2.83;;;12.40;99.90;;;;;;5032434;28;20532;-64
2022/10/26 01:33:18;;;;;;;6.80;2.67;;;12.40;99.90;;;;;;5023128;28;20473;-64
2022/10/26 01:36:10;;;;;;;9.00;4.45;;;12.40;99.90;;;;;;5025923;28;20114;-64
2022/10/26 01:38:57;;;;;;;7.95;5.00;;;12.40;99.90;;;;;;5031316;28;20385;-63
2022/10/26 01:41:29;;;;;;;9.38;4.95;;;12.30;99.90;;;;;;5034111;28;20025;-64
2022/10/26 01:44:08;;;;;;;7.82;4.70;;;12.30;99.90;;;;;;5028382;28;20036;-63
2022/10/26 01:46:38;;;;;;;6.35;4.70;;;12.20;99.90;;;;;;5027286;28;20493;-64
2022/10/26 01:49:12;;;;;;;11.23;5.00;;;12.20;99.90;;;;;;5033037;28;20025;-64
2022/10/26 01:51:40;;;;;;;9.77;4.95;;;12.20;99.90;;;;;;5033564;28;20053;-64
2022/10/26 01:54:06;;;;;;;10.48;5.10;;;12.10;99.90;;;;;;5032924;28;20045;-64
2022/10/26 01:56:35;;;;;;;9.10;5.45;;;12.20;99.90;;;;;;5033094;28;20064;-64
2022/10/26 01:59:18;;;;;;;11.00;4.88;;;12.10;99.90;;;;;;5031681;28;20504;-64
2022/10/26 02:01:59;;;;;;;10.48;4.90;;;12.20;99.90;;;;;;5022228;28;20120;-64
2022/10/26 02:05:18;;;;;;;5.65;4.35;;;12.20;99.90;;;;;;5019185;28;20040;-64
2022/10/26 02:07:51;;;;;;;6.80;3.78;;;12.20;99.90;;;;;;5030860;28;20033;-64
2022/10/26 02:11:04;;;;;;;6.22;3.95;;;12.20;99.90;;;;;;5033033;28;20393;-64
2022/10/26 02:13:39;;;;;;;4.97;3.30;;;12.30;99.90;;;;;;5029482;28;20029;-64
2022/10/26 02:16:16;;;;;;;11.30;5.53;;;12.20;99.90;;;;;;5031573;28;20473;-64
2022/10/26 02:18:53;;;;;;;6.03;3.33;;;12.30;99.90;;;;;;5033243;28;20034;-64
2022/10/26 02:21:26;;;;;;;4.13;2.67;;;12.30;99.90;;;;;;5032788;28;20029;-64
2022/10/26 02:23:55;;;;;;;5.28;3.20;;;12.30;99.90;;;;;;5033064;28;20036;-64
2022/10/26 02:26:23;;;;;;;7.32;3.63;;;12.40;99.90;;;;;;5032374;28;20053;-64
2022/10/26 02:28:52;;;;;;;8.75;3.78;;;12.30;99.90;;;;;;5030942;28;20028;-64
2022/10/26 02:31:19;;;;;;;5.50;3.60;;;12.30;99.90;;;;;;5032441;28;20366;-64
2022/10/26 02:33:48;;;;;;;4.72;2.95;;;12.30;99.90;;;;;;5032833;28;20473;-64
2022/10/26 02:36:18;;;;;;;3.70;2.17;;;12.40;99.90;;;;;;5025691;28;20071;-64
2022/10/26 02:38:46;;;;;;;5.35;2.78;;;12.40;99.90;;;;;;5032679;28;20033;-63
2022/10/26 02:41:14;;;;;;;8.30;3.38;;;12.40;99.90;;;;;;5032461;28;20033;-64
2022/10/26 02:43:50;;;;;;;9.02;4.35;;;12.40;99.90;;;;;;5032439;28;20036;-64
2022/10/26 02:46:19;;;;;;;7.93;4.35;;;12.40;99.90;;;;;;5032163;28;20037;-64
2022/10/26 02:48:45;;;;;;;7.43;4.13;;;12.40;99.90;;;;;;5032284;28;20044;-64
2022/10/26 02:51:25;;;;;;;5.68;3.80;;;12.40;99.90;;;;;;5032530;28;20026;-64
2022/10/26 02:54:12;;;;;;;9.13;4.32;;;12.40;99.90;;;;;;5032749;28;20504;-64
2022/10/26 02:56:52;;;;;;;7.40;5.00;;;12.40;99.90;;;;;;5032548;28;20021;-64
2022/10/26 02:59:21;;;;;;;7.55;4.88;;;12.40;99.90;;;;;;5021610;28;20021;-64
2022/10/26 03:01:48;;;;;;;9.00;4.50;;;12.40;99.90;;;;;;5031920;28;20021;-64
2022/10/26 03:04:13;;;;;;;7.88;4.60;;;12.30;99.90;;;;;;5032282;28;20021;-64
2022/10/26 03:06:39;;;;;;;11.68;4.93;;;12.30;99.90;;;;;;5037275;28;20416;-64
2022/10/26 03:09:04;;;;;;;9.55;5.07;;;12.30;99.90;;;;;;5038922;28;20033;-64
2022/10/26 03:11:30;;;;;;;8.10;4.75;;;12.30;99.90;;;;;;5038688;28;20021;-64
2022/10/26 03:13:55;;;;;;;9.85;5.00;;;12.30;99.90;;;;;;5037554;28;20029;-64
2022/10/26 03:16:21;;;;;;;8.80;4.80;;;12.30;99.90;;;;;;5034310;28;20421;-64
2022/10/26 03:18:46;;;;;;;7.35;5.65;;;12.30;99.90;;;;;;5029147;28;20029;-64
2022/10/26 03:21:12;;;;;;;8.75;4.07;;;12.30;99.90;;;;;;5038562;28;20497;-64
2022/10/26 03:23:37;;;;;;;5.65;3.90;;;12.30;99.90;;;;;;5037683;28;20025;-64
2022/10/26 03:26:03;;;;;;;8.07;4.50;;;12.30;99.90;;;;;;5038806;28;20105;-64
2022/10/26 03:28:28;;;;;;;10.18;4.55;;;12.30;99.90;;;;;;5038854;28;20482;-64
2022/10/26 03:30:54;;;;;;;7.65;4.68;;;12.30;99.90;;;;;;5038685;28;20557;-64
2022/10/26 03:33:19;;;;;;;10.05;4.75;;;12.30;99.90;;;;;;5037288;28;20022;-64
2022/10/26 03:35:45;;;;;;;6.80;4.75;;;12.30;99.90;;;;;;5028471;28;20026;-63
2022/10/26 03:38:10;;;;;;;10.35;5.10;;;12.30;99.90;;;;;;5034397;28;20086;-64
2022/10/26 03:40:36;;;;;;;7.30;4.35;;;12.30;99.90;;;;;;5038523;28;20589;-64
2022/10/26 03:43:02;;;;;;;8.88;4.97;;;12.30;99.90;;;;;;5038329;28;20056;-64
2022/10/26 03:45:28;;;;;;;6.50;4.07;;;12.30;99.90;;;;;;5038598;28;20114;-64
2022/10/26 03:47:53;;;;;;;11.75;4.70;;;12.30;99.90;;;;;;5036908;28;20501;-64
2022/10/26 03:50:20;;;;;;;8.20;4.15;;;12.30;99.90;;;;;;5038156;28;20033;-64
2022/10/26 03:52:48;;;;;;;9.52;4.60;;;12.30;99.90;;;;;;5038783;28;20041;-64
2022/10/26 03:55:14;;;;;;;9.38;5.18;;;12.30;99.90;;;;;;5038367;28;20049;-64
2022/10/26 03:57:46;;;;;;;9.82;4.70;;;12.40;99.90;;;;;;5038469;28;20064;-64
2022/10/26 04:00:15;;;;;;;7.45;5.07;;;12.40;99.90;;;;;;5038115;28;20026;-64
2022/10/26 04:02:46;;;;;;;11.02;5.07;;;12.40;99.90;;;;;;5038392;28;20124;-64
2022/10/26 04:05:13;;;;;;;10.77;5.10;;;12.40;99.90;;;;;;5038187;28;20024;-64
2022/10/26 04:07:38;;;;;;;10.93;5.55;;;12.40;99.90;;;;;;5037174;28;20036;-64
2022/10/26 04:10:05;;;;;;;8.65;4.38;;;12.40;99.90;;;;;;5036960;28;20026;-64
2022/10/26 04:12:30;;;;;;;7.88;4.47;;;12.40;99.90;;;;;;5035366;28;20056;-64
2022/10/26 04:14:59;;;;;;;8.80;4.57;;;12.40;99.90;;;;;;5036207;28;20017;-65
2022/10/26 04:17:25;;;;;;;6.97;4.60;;;12.40;99.90;;;;;;5034579;28;20021;-64
2022/10/26 04:19:50;;;;;;;9.65;4.57;;;12.50;99.90;;;;;;5035254;28;20449;-64
2022/10/26 04:22:16;;;;;;;10.10;4.97;;;12.50;99.90;;;;;;5035198;28;20080;-64
2022/10/26 04:24:41;;;;;;;6.30;4.65;;;12.50;99.90;;;;;;5035038;28;20496;-64
2022/10/26 04:27:07;;;;;;;10.80;4.68;;;12.50;99.90;;;;;;5035038;28;20068;-64
2022/10/26 04:29:32;;;;;;;7.60;4.03;;;12.50;99.90;;;;;;5034555;28;20068;-64
2022/10/26 04:31:58;;;;;;;11.07;4.32;;;12.50;99.90;;;;;;5034846;28;20017;-64
2022/10/26 04:34:23;;;;;;;8.40;4.20;;;12.50;99.90;;;;;;5034779;28;20029;-63
2022/10/26 04:36:49;;;;;;;8.45;4.60;;;12.50;99.90;;;;;;5034304;28;20025;-64
2022/10/26 04:39:14;;;;;;;8.88;4.05;;;12.60;99.90;;;;;;5035028;28;20033;-64
2022/10/26 04:41:40;;;;;;;11.02;4.65;;;12.50;99.90;;;;;;5034228;28;20034;-64
2022/10/26 04:44:05;;;;;;;10.32;4.13;;;12.50;99.90;;;;;;5034525;28;20485;-63
2022/10/26 04:46:31;;;;;;;6.05;4.25;;;12.50;99.90;;;;;;5034492;28;20481;-64
2022/10/26 04:48:56;;;;;;;9.30;4.15;;;12.50;99.90;;;;;;5034402;28;20079;-63
2022/10/26 04:51:22;;;;;;;8.00;4.45;;;12.50;99.90;;;;;;5034796;28;20030;-64
2022/10/26 04:53:47;;;;;;;6.65;4.28;;;12.50;99.90;;;;;;5034370;28;20091;-64
2022/10/26 04:56:13;;;;;;;9.70;4.25;;;12.50;99.90;;;;;;5034733;28;20025;-63
2022/10/26 04:58:38;;;;;;;7.03;3.85;;;12.50;99.90;;;;;;5033052;28;20017;-64
2022/10/26 05:01:04;;;;;;;9.77;4.47;;;12.50;99.90;;;;;;5034496;28;20104;-64
2022/10/26 05:03:30;;;;;;;8.75;4.60;;;12.50;99.90;;;;;;5034153;28;20026;-63
2022/10/26 05:05:57;;;;;;;12.80;4.75;;;12.50;99.90;;;;;;5034694;28;20494;-63
2022/10/26 05:08:23;;;;;;;7.05;4.00;;;12.50;99.90;;;;;;5033018;28;20052;-63
2022/10/26 05:10:49;;;;;;;8.35;3.70;;;12.50;99.90;;;;;;5034219;28;20470;-64
2022/10/26 05:13:15;;;;;;;6.93;3.80;;;12.60;99.90;;;;;;5033904;28;20462;-63
2022/10/26 05:15:40;;;;;;;6.95;3.90;;;12.50;99.90;;;;;;5034331;28;20030;-63
2022/10/26 05:18:07;;;;;;;10.00;4.20;;;12.50;99.90;;;;;;5033890;28;20053;-64
2022/10/26 05:20:34;;;;;;;7.45;3.88;;;12.60;99.90;;;;;;5033842;28;20074;-64
2022/10/26 05:23:03;;;;;;;5.82;3.75;;;12.60;99.90;;;;;;5033895;28;20025;-64
2022/10/26 05:25:33;;;;;;;6.38;3.58;;;12.60;99.90;;;;;;5034143;28;20482;-64
2022/10/26 05:28:03;;;;;;;9.35;4.15;;;12.60;99.90;;;;;;5033649;28;20079;-64
2022/10/26 05:30:30;;;;;;;9.57;5.35;;;12.60;99.90;;;;;;5016158;28;20025;-64
2022/10/26 05:32:57;;;;;;;6.43;3.70;;;12.60;99.90;;;;;;5033831;28;20033;-64
2022/10/26 05:35:24;;;;;;;7.30;3.85;;;12.60;99.90;;;;;;5026048;28;20025;-64
2022/10/26 05:37:50;;;;;;;7.47;3.72;;;12.60;99.90;;;;;;5027594;28;20026;-64
2022/10/26 05:40:16;;;;;;;7.30;3.80;;;12.60;99.90;;;;;;5029449;28;20033;-64
2022/10/26 05:42:42;;;;;;;10.52;3.95;;;12.60;99.90;;;;;;5030992;28;20048;-64
2022/10/26 05:45:09;;;;;;;6.40;3.78;;;12.60;99.90;;;;;;5026134;28;20050;-65
2022/10/26 05:47:43;;;;;;;7.35;3.50;;;12.60;99.90;;;;;;5029858;28;20037;-64
2022/10/26 05:50:09;;;;;;;7.55;4.05;;;12.70;99.90;;;;;;5027872;28;20032;-64
2022/10/26 05:52:39;;;;;;;11.32;4.30;;;12.70;99.90;;;;;;5025684;28;20025;-64
2022/10/26 05:55:06;;;;;;;6.50;3.58;;;12.70;99.90;;;;;;5014850;28;20014;-64
2022/10/26 05:57:32;;;;;;;5.85;3.50;;;12.70;99.90;;;;;;5019390;28;20095;-64
2022/10/26 05:59:58;;;;;;;7.97;4.05;;;12.70;99.90;;;;;;5023981;28;20482;-64
2022/10/26 06:03:12;;;;;;;7.90;3.58;;;12.70;99.90;;;;;;5018246;28;20091;-64
2022/10/26 06:05:43;;;;;;;6.28;3.42;;;12.70;99.90;;;;;;5025394;28;20042;-64
2022/10/26 06:08:11;;;;;;;7.97;3.35;;;12.70;99.90;;;;;;5025769;28;20128;-64
2022/10/26 06:10:38;;;;;;;7.88;3.47;;;12.70;99.90;;;;;;5023088;28;20486;-63
2022/10/26 06:13:04;;;;;;;9.15;3.30;;;12.70;99.90;;;;;;5018502;28;20120;-63
2022/10/26 06:15:34;;;;;;;6.50;3.10;;;12.70;99.90;;;;;;5026366;28;20092;-64
2022/10/26 06:18:21;;;;;;;7.47;4.25;;;12.60;99.90;;;;;;5024748;28;20040;-64
2022/10/26 06:21:22;;;;;;;8.70;3.83;;;12.70;99.90;;;;;;5025537;28;20396;-64
2022/10/26 06:24:10;;;;;;;9.75;3.95;;;12.70;99.90;;;;;;5030890;28;20033;-64
2022/10/26 06:26:49;;;;;;;8.15;4.55;;;12.60;99.90;;;;;;5027265;28;20030;-64
2022/10/26 06:29:27;;;;;;;7.35;3.08;;;12.60;99.90;;;;;;5021227;28;20017;-64
2022/10/26 06:31:52;;;;;;;7.90;3.42;;;12.60;99.90;;;;;;5026206;28;20021;-64
2022/10/26 06:34:25;;;;;;;7.25;3.20;;;12.60;99.90;;;;;;5027184;28;20125;-64
2022/10/26 06:36:50;;;;;;;5.50;3.22;;;12.60;99.90;;;;;;5021809;28;20010;-64
2022/10/26 06:39:17;;;;;;;5.63;2.97;;;12.60;99.90;;;;;;5026159;28;20037;-64
2022/10/26 06:41:43;;;;;;;8.63;3.78;;;12.60;99.90;;;;;;5025775;28;20049;-64
2022/10/26 06:44:18;;;;;;;8.88;3.83;;;12.70;99.90;;;;;;5015142;28;20069;-63
2022/10/26 06:46:58;;;;;;;10.30;3.45;;;12.70;99.90;;;;;;5014794;28;20083;-64
2022/10/26 06:49:31;;;;;;;8.10;3.15;;;12.70;99.90;;;;;;5007941;28;20026;-64
2022/10/26 06:52:12;;;;;;;7.75;3.47;;;12.70;99.90;;;;;;5023771;28;20032;-64
2022/10/26 06:54:53;;;;;;;6.72;3.35;;;12.70;99.90;;;;;;5014222;28;20053;-64
2022/10/26 06:57:20;;;;;;;7.53;2.80;;;12.70;99.90;;;;;;5021376;28;20086;-64
2022/10/26 06:59:52;;;;;;;5.60;3.00;;;12.70;99.90;;;;;;5026871;28;20117;-64
2022/10/26 07:02:18;;;;;;;5.95;3.22;;;12.70;99.90;;;;;;5024245;28;20053;-64
2022/10/26 07:04:44;;;;;;;9.40;3.53;;;12.70;99.90;;;;;;5014585;28;20493;-64
2022/10/26 07:07:17;;;;;;;7.90;3.85;;;12.80;99.90;;;;;;5016809;28;20044;-64
2022/10/26 07:09:45;;;;;;;10.52;4.03;;;12.80;99.90;;;;;;5013769;28;20022;-64
2022/10/26 07:12:11;;;;;;;5.97;3.00;;;12.80;99.90;;;;;;5011684;28;20034;-63
2022/10/26 07:14:36;;;;;;;6.88;2.85;;;12.90;99.90;;;;;;5012391;28;20410;-64
2022/10/26 07:17:02;;;;;;;7.75;2.95;;;12.90;99.90;;;;;;5014344;28;20064;-64
2022/10/26 07:19:28;;;;;;;5.70;2.78;;;13.00;99.90;;;;;;5019608;28;20037;-64
2022/10/26 07:21:55;;;;;;;7.70;3.17;;;13.10;99.90;;;;;;5011374;28;20025;-63
2022/10/26 07:24:22;;;;;;;7.13;3.33;;;13.10;99.90;;;;;;5012234;28;20461;-64
2022/10/26 07:26:47;;;;;;;9.70;3.00;;;13.20;99.90;;;;;;5014667;28;20393;-64
2022/10/26 07:29:13;;;;;;;7.40;3.63;;;13.30;99.90;;;;;;5015412;28;20033;-64
2022/10/26 07:31:38;;;;;;;7.32;2.78;;;13.30;99.90;;;;;;5023220;28;20112;-64
2022/10/26 07:34:04;;;;;;;3.95;2.63;;;13.40;99.90;;;;;;5021539;28;20466;-64
2022/10/26 07:36:29;;;;;;;8.90;3.25;;;13.40;99.90;;;;;;5021584;28;20025;-64
2022/10/26 07:38:55;;;;;;;7.32;3.10;;;13.50;99.90;;;;;;5022700;28;20381;-64
2022/10/26 07:41:20;;;;;;;6.82;3.17;;;13.60;99.90;;;;;;5015849;28;20037;-64
2022/10/26 07:43:47;;;;;;;9.90;2.95;;;13.70;99.90;;;;;;5024430;28;20025;-63
2022/10/26 07:46:13;;;;;;;5.85;2.75;;;13.70;99.90;;;;;;5021762;28;20034;-64
2022/10/26 07:48:40;;;;;;;4.53;2.53;;;13.80;99.90;;;;;;5024094;28;20569;-64
2022/10/26 07:51:06;;;;;;;7.25;3.00;;;13.80;99.90;;;;;;5019676;28;20535;-64
2022/10/26 07:53:31;;;;;;;6.68;3.15;;;13.90;99.90;;;;;;5028347;28;20551;-64
2022/10/26 07:55:57;;;;;;;6.15;3.55;;;13.90;99.90;;;;;;5031713;28;20100;-63
2022/10/26 07:58:25;;;;;;;8.30;3.05;;;14.00;99.90;;;;;;5021002;28;20072;-64
2022/10/26 08:00:51;;;;;;;6.40;3.03;;;14.00;99.90;;;;;;5022422;28;20034;-63
2022/10/26 08:03:17;;;;;;;5.00;2.90;;;14.00;99.90;;;;;;5023496;28;20033;-63
2022/10/26 08:05:49;;;;;;;5.85;3.15;;;14.10;99.90;;;;;;5028716;28;20037;-64
2022/10/26 08:08:18;;;;;;;7.47;3.65;;;14.10;99.90;;;;;;5024069;28;20029;-64
2022/10/26 08:10:44;;;;;;;9.25;3.38;;;14.20;99.90;;;;;;5029151;28;20030;-64
2022/10/26 08:13:11;;;;;;;6.43;3.42;;;14.30;99.90;;;;;;5031302;28;20607;-64
2022/10/26 08:15:36;;;;;;;6.20;3.10;;;14.30;99.90;;;;;;5028655;28;20057;-64
2022/10/26 08:18:02;;;;;;;7.68;3.58;;;14.40;99.90;;;;;;5020465;28;20104;-64
2022/10/26 08:20:28;;;;;;;7.28;2.78;;;14.50;99.90;;;;;;5019066;28;20065;-64
2022/10/26 08:22:57;;;;;;;5.68;3.40;;;14.60;99.90;;;;;;5018782;28;20022;-65
2022/10/26 08:25:23;;;;;;;7.22;3.63;;;14.70;99.90;;;;;;5014562;28;20037;-64
2022/10/26 08:27:49;;;;;;;4.95;3.13;;;14.80;99.90;;;;;;5024299;28;20048;-64
2022/10/26 08:30:14;;;;;;;4.93;3.20;;;14.90;99.90;;;;;;5020024;28;20030;-64
2022/10/26 08:32:41;;;;;;;7.45;3.50;;;14.90;99.90;;;;;;5024593;28;20494;-64
2022/10/26 08:35:09;;;;;;;5.95;3.30;;;15.00;99.90;;;;;;5022356;28;20037;-64
2022/10/26 08:37:35;;;;;;;8.93;3.35;;;15.20;99.90;;;;;;5022668;28;20022;-64
2022/10/26 08:40:02;;;;;;;6.40;3.80;;;15.20;99.90;;;;;;5020587;28;20045;-64
2022/10/26 08:42:44;;;;;;;6.88;3.45;;;15.40;99.90;;;;;;5018757;28;20041;-64
2022/10/26 08:45:23;;;;;;;7.40;4.60;;;15.50;99.90;;;;;;5025670;28;20124;-64
2022/10/26 08:47:54;;;;;;;7.85;4.47;;;15.60;99.90;;;;;;5025073;28;20022;-64
2022/10/26 08:50:28;;;;;;;6.75;3.60;;;15.60;99.90;;;;;;5025022;28;20030;-64
2022/10/26 08:53:24;;;;;;;6.78;3.95;;;15.70;99.90;;;;;;5028816;28;20045;-64
2022/10/26 08:56:13;;;;;;;6.82;4.28;;;15.80;99.90;;;;;;5027667;28;20028;-64
2022/10/26 08:58:51;;;;;;;4.57;3.22;;;15.90;99.90;;;;;;5030450;28;20060;-65
2022/10/26 09:01:17;;;;;;;6.73;3.53;;;16.00;99.90;;;;;;5020092;28;20355;-64
2022/10/26 09:03:43;;;;;;;7.30;2.95;;;16.10;99.90;;;;;;5020520;28;20512;-64
2022/10/26 09:06:16;;;;;;;4.88;2.90;;;16.30;99.90;;;;;;5020069;28;20036;-64
2022/10/26 09:09:16;;;;;;;5.82;2.80;;;16.40;99.90;;;;;;5022825;28;20029;-64
2022/10/26 09:12:00;;;;;;;;;;;16.50;99.90;;;;;;5023103;28;20033;-64
2022/10/26 09:14:42;;;;;;;4.63;2.65;;;16.50;99.90;;;;;;5030548;28;19959;-65
2022/10/26 09:17:19;;;;;;;4.72;2.63;;;16.60;99.90;;;;;;5028635;28;20070;-65
2022/10/26 09:19:57;;;;;;;4.00;2.00;;;16.70;99.90;;;;;;5030077;28;20055;-64
2022/10/26 09:22:35;;;;;;;7.80;3.88;;;16.80;99.90;;;;;;5029958;28;20033;-65
2022/10/26 09:25:20;;;;;;;4.57;2.05;;;16.90;99.90;;;;;;5030262;28;20059;-64
2022/10/26 09:27:50;;;;;;;6.40;2.80;;;17.00;99.90;;;;;;5029610;28;20367;-64
2022/10/26 09:30:19;;;;;;;5.93;2.33;;;17.10;99.90;;;;;;5027228;28;20390;-65
2022/10/26 09:32:52;;;;;;;4.47;2.40;;;17.20;99.90;;;;;;5028516;28;20025;-65
2022/10/26 09:35:24;;;;;;;4.20;2.00;;;17.30;99.90;;;;;;5029797;28;20112;-65
2022/10/26 09:38:02;;;;;;;4.07;2.30;;;17.40;99.90;;;;;;5026908;28;20025;-64
2022/10/26 09:40:48;;;;;;;6.20;2.85;;;17.50;99.90;;;;;;5030081;28;20037;-64
2022/10/26 09:43:27;;;;;;;5.40;2.60;;;17.60;99.90;;;;;;5044095;28;20021;-65
2022/10/26 09:45:56;;;;;;;3.72;2.55;;;17.80;99.90;;;;;;5035270;28;20106;-64
2022/10/26 09:48:42;;;;;;;6.13;2.35;;;18.00;99.90;;;;;;5035080;28;20568;-65
2022/10/26 09:51:08;;;;;;;4.78;2.40;;;18.30;99.90;;;;;;5036254;28;20025;-65
2022/10/26 09:53:34;;;;;;;4.50;2.13;;;18.60;99.90;;;;;;5032028;28;20013;-65
2022/10/26 09:56:09;;;;;;;5.90;1.92;;;19.00;99.90;;;;;;5031464;28;20018;-65
2022/10/26 09:58:45;;;;;;;5.25;2.42;;;19.50;99.60;;;;;;5037887;28;20048;-64
2022/10/26 10:01:33;;;;;;;4.13;1.90;;;20.30;98.60;;;;;;5036028;28;20113;-65
2022/10/26 10:04:15;;;;;;;2.60;1.42;;;21.40;96.10;;;;;;5033185;28;20040;-64
2022/10/26 10:06:44;;;;;;;2.78;0.90;;;22.00;93.10;;;;;;5034957;28;20478;-65
2022/10/26 10:09:12;;;;;;;3.60;1.63;;;23.20;92.20;;;;;;5034673;28;20021;-65
2022/10/26 10:11:54;;;;;;;2.83;1.33;;;24.90;89.50;;;;;;5037768;28;20017;-65
2022/10/26 10:14:53;;;;;;;2.33;1.20;;;26.00;82.00;;;;;;5031124;28;20355;-65
2022/10/26 10:17:21;;;;;;;4.28;1.45;;;26.70;78.70;;;;;;5033985;28;20017;-65
2022/10/26 10:19:47;;;;;;;3.15;1.35;;;27.60;70.60;;;;;;5033276;28;20028;-65
2022/10/26 10:22:18;;;;;;;7.28;1.80;;;28.50;66.10;;;;;;5031396;28;20021;-65
2022/10/26 10:24:56;;;;;;;2.72;1.10;;;29.20;63.40;;;;;;5035264;28;20029;-65
2022/10/26 10:27:22;;;;;;;3.53;1.63;;;30.50;60.90;;;;;;5024341;28;20089;-65
2022/10/26 10:29:56;;;;;;;4.43;1.52;;;31.20;58.20;;;;;;5026750;28;20061;-65
2022/10/26 10:32:26;;;;;;;3.38;1.30;;;32.20;56.20;;;;;;5028464;28;20025;-65
2022/10/26 10:34:54;;;;;;;2.72;1.05;;;33.10;54.10;;;;;;5021104;28;20033;-65
2022/10/26 10:37:26;;;;;;;2.67;1.17;;;34.10;52.90;;;;;;5033217;28;20021;-65
2022/10/26 10:39:57;;;;;;;2.42;1.48;;;34.60;50.60;;;;;;5041097;28;20026;-65
2022/10/26 10:42:29;;;;;;;2.25;1.10;;;34.80;49.80;;;;;;5042420;28;20489;-65
2022/10/26 10:44:56;;;;;;;4.45;1.33;;;34.90;49.30;;;;;;5032511;28;20037;-65
2022/10/26 10:47:28;;;;;;;4.55;1.30;;;34.40;47.70;;;;;;5040506;28;20494;-66
2022/10/26 10:50:12;;;;;;;1.55;0.80;;;34.30;47.40;;;;;;5037356;28;20037;-64
2022/10/26 10:52:38;;;;;;;3.65;0.95;;;34.20;48.30;;;;;;5037414;28;20017;-63
2022/10/26 10:55:20;;;;;;;4.72;1.30;;;33.40;48.30;;;;;;5045425;28;20504;-64
2022/10/26 10:58:11;;;;;;;2.70;1.10;;;33.30;48.90;;;;;;5035470;28;20099;-63
2022/10/26 11:00:37;;;;;;;3.47;0.90;;;33.60;48.30;;;;;;5035966;28;20370;-63
2022/10/26 11:03:23;;;;;;;3.40;1.20;;;34.80;47.30;;;;;;5047626;28;20036;-63
2022/10/26 11:06:10;;;;;;;5.20;0.98;;;35.40;45.40;;;;;;5032137;28;20084;-63
2022/10/26 11:08:56;;;;;;;1.85;0.90;;;35.70;45.50;;;;;;5031294;28;20018;-64
2022/10/26 11:11:42;;;;;;;2.45;0.90;;;36.60;44.80;;;;;;5030905;28;20029;-63
2022/10/26 11:14:19;;;;;;;2.67;1.15;;;36.60;44.10;;;;;;5031636;28;20105;-64
2022/10/26 11:16:52;;;;;;;2.28;1.05;;;36.90;44.20;;;;;;5030554;28;20034;-64
2022/10/26 11:19:23;;;;;;;2.80;1.20;;;36.30;42.60;;;;;;5031198;28;20033;-64
2022/10/26 11:21:55;;;;;;;2.03;0.82;;;35.60;44.00;;;;;;5028912;28;20080;-64
2022/10/26 11:24:27;;;;;;;2.47;0.98;;;36.20;43.70;;;;;;5031081;28;20024;-64
2022/10/26 11:27:11;;;;;;;2.83;1.00;;;36.60;43.00;;;;;;5030301;28;20017;-64
2022/10/26 11:29:52;;;;;;;3.17;1.10;;;36.90;42.90;;;;;;5034646;28;20025;-64
2022/10/26 11:32:29;;;;;;;3.67;0.98;;;36.20;42.60;;;;;;5034422;28;20056;-64
2022/10/26 11:34:58;;;;;;;3.20;0.98;;;34.30;44.70;;;;;;5031873;28;20068;-64
2022/10/26 11:37:33;;;;;;;3.72;1.40;;;32.90;46.50;;;;;;5034578;28;20025;-63
2022/10/26 11:40:15;;;;;;;3.60;1.48;;;31.40;48.30;;;;;;5034775;28;20075;-63
2022/10/26 11:42:49;;;;;;;2.15;0.80;;;30.20;50.80;;;;;;5034402;28;20029;-64
2022/10/26 11:45:17;;;;;;;3.13;1.10;;;29.60;52.20;;;;;;5033181;28;20132;-63
2022/10/26 11:48:06;;;;;;;4.10;1.40;;;28.90;53.30;;;;;;5033980;28;20439;-63
2022/10/26 11:50:35;;;;;;;2.20;1.00;;;28.00;54.70;;;;;;5033174;28;20036;-63
2022/10/26 11:53:18;;;;;;;4.68;1.40;;;27.40;56.40;;;;;;5034573;28;20020;-63
2022/10/26 11:55:51;;;;;;;3.17;0.93;;;27.00;57.30;;;;;;5032290;28;20030;-63
2022/10/26 11:58:17;;;;;;;3.65;1.27;;;26.70;58.20;;;;;;5034108;28;20500;-63
2022/10/26 12:01:06;;;;;;;2.58;1.35;;;26.90;58.50;;;;;;5034283;28;20033;-63
2022/10/26 12:03:44;;;;;;;4.97;1.50;;;28.00;57.10;;;;;;5034141;28;20037;-63
2022/10/26 12:06:11;;;;;;;1.90;0.82;;;29.70;55.00;;;;;;5034481;28;20040;-63
2022/10/26 12:08:45;;;;;;;2.30;0.80;;;31.80;52.70;;;;;;5034073;28;20104;-63
2022/10/26 12:11:24;;;;;;;2.22;0.90;;;33.30;49.90;;;;;;5032564;28;20025;-63
2022/10/26 12:13:54;;;;;;;1.98;0.90;;;34.00;47.70;;;;;;5019948;28;20097;-63
2022/10/26 12:16:46;;;;;;;2.47;0.93;;;34.70;47.30;;;;;;5028293;28;20022;-64
2022/10/26 12:19:32;;;;;;;1.65;0.88;;;35.80;46.20;;;;;;5025811;28;20026;-63
2022/10/26 12:21:58;;;;;;;1.65;0.98;;;36.60;45.30;;;;;;5028251;28;20017;-63
2022/10/26 12:24:34;;;;;;;2.15;0.88;;;37.10;44.60;;;;;;5026360;28;20022;-64
2022/10/26 12:27:24;;;;;;;2.03;0.98;;;37.70;43.10;;;;;;5034186;28;20021;-64
2022/10/26 12:30:12;;;;;;;1.50;0.80;;;37.50;42.60;;;;;;5022509;28;20039;-64
2022/10/26 12:32:41;;;;;;;1.88;0.80;;;37.90;43.00;;;;;;5032030;28;20025;-64
2022/10/26 12:35:25;;;;;;;;;;;38.40;42.20;;;;;;5031900;28;20022;-64
2022/10/26 12:37:50;;;;;;;2.00;0.93;;;38.80;42.00;;;;;;5032041;28;19955;-64
2022/10/26 12:40:37;;;;;;;1.33;0.80;;;39.20;41.30;;;;;;5033728;28;20061;-64
2022/10/26 12:43:15;;;;;;;3.65;1.55;;;39.60;40.50;;;;;;5028302;28;20048;-63
2022/10/26 12:45:42;;;;;;;2.72;0.80;;;39.30;39.60;;;;;;5030627;28;20056;-64
2022/10/26 12:48:42;;;;;;;1.48;0.90;;;39.30;39.90;;;;;;5032946;28;20052;-63
2022/10/26 12:51:37;;;;;;;3.25;0.88;;;39.60;40.00;;;;;;5000756;28;20054;-64
2022/10/26 12:54:34;;;;;;;2.90;1.02;;;40.00;39.70;;;;;;5014954;28;20042;-64
2022/10/26 12:57:29;;;;;;;1.52;0.80;;;38.70;39.10;;;;;;5014870;28;20069;-64
2022/10/26 13:00:03;;;;;;;3.22;1.10;;;37.60;40.60;;;;;;5014848;28;20474;-63
2022/10/26 13:02:57;;;;;;;2.42;1.05;;;37.00;41.00;;;;;;5034804;28;20080;-63
2022/10/26 13:05:28;;;;;;;3.03;1.25;;;36.90;41.80;;;;;;5034001;28;20466;-63
2022/10/26 13:08:08;;;;;;;2.33;1.35;;;37.40;41.40;;;;;;5034480;28;20033;-63
2022/10/26 13:10:35;;;;;;;1.00;0.80;;;37.50;40.70;;;;;;5023259;28;20021;-63